sensor_id;sensor_type;location;lat;lon;timestamp;temperature;humidity
19348;DHT22;9810;52.480;9.806;2023-03-11T00:02:26;0.30;99.90
19348;DHT22;9810;52.480;9.806;2023-03-11T00:04:54;0.40;99.90
19348;DHT22;9810;52.480;9.806;2023-03-11T00:07:21;0.40;99.90
19348;DHT22;9810;52.480;9.806;2023-03-11T00:09:48;0.30;99.90
19348;DHT22;9810;52.480;9.806;2023-03-11T00:12:16;0.40;99.90
19348;DHT22;9810;52.480;9.806;2023-03-11T00:14:44;0.30;99.90
19348;DHT22;9810;52.480;9.806;2023-03-11T00:17:12;0.40;99.90
19348;DHT22;9810;52.480;9.806;2023-03-11T00:19:39;0.40;99.90
19348;DHT22;9810;52.480;9.806;2023-03-11T00:22:07;0.30;99.90
19348;DHT22;9810;52.480;9.806;2023-03-11T00:24:34;0.30;99.90
19348;DHT22;9810;52.480;9.806;2023-03-11T00:27:01;0.30;99.90
19348;DHT22;9810;52.480;9.806;2023-03-11T00:29:29;0.40;99.90
19348;DHT22;9810;52.480;9.806;2023-03-11T00:31:58;0.30;99.90
19348;DHT22;9810;52.480;9.806;2023-03-11T00:34:25;0.40;99.90
19348;DHT22;9810;52.480;9.806;2023-03-11T00:36:53;0.30;99.90
19348;DHT22;9810;52.480;9.806;2023-03-11T00:39:20;0.40;99.90
19348;DHT22;9810;52.480;9.806;2023-03-11T00:41:47;0.40;99.90
19348;DHT22;9810;52.480;9.806;2023-03-11T00:44:15;0.50;99.90
19348;DHT22;9810;52.480;9.806;2023-03-11T00:46:42;0.40;99.90
19348;DHT22;9810;52.480;9.806;2023-03-11T00:49:11;0.40;99.90
19348;DHT22;9810;52.480;9.806;2023-03-11T00:51:38;0.40;99.90
19348;DHT22;9810;52.480;9.806;2023-03-11T00:54:05;0.30;99.90
19348;DHT22;9810;52.480;9.806;2023-03-11T00:56:33;0.40;99.90
19348;DHT22;9810;52.480;9.806;2023-03-11T00:59:00;0.30;99.90
19348;DHT22;9810;52.480;9.806;2023-03-11T01:01:28;0.40;99.90
19348;DHT22;9810;52.480;9.806;2023-03-11T01:03:54;0.30;99.90
19348;DHT22;9810;52.480;9.806;2023-03-11T01:06:24;0.50;99.90
19348;DHT22;9810;52.480;9.806;2023-03-11T01:08:51;0.40;99.90
19348;DHT22;9810;52.480;9.806;2023-03-11T01:11:18;0.40;99.90
19348;DHT22;9810;52.480;9.806;2023-03-11T01:13:46;0.30;99.90
19348;DHT22;9810;52.480;9.806;2023-03-11T01:16:13;0.30;99.90
19348;DHT22;9810;52.480;9.806;2023-03-11T01:18:41;0.30;99.90
19348;DHT22;9810;52.480;9.806;2023-03-11T01:21:08;0.30;99.90
19348;DHT22;9810;52.480;9.806;2023-03-11T01:23:38;0.30;99.90
19348;DHT22;9810;52.480;9.806;2023-03-11T01:26:05;0.40;99.90
19348;DHT22;9810;52.480;9.806;2023-03-11T01:28:33;0.40;99.90
19348;DHT22;9810;52.480;9.806;2023-03-11T01:31:00;0.30;99.90
19348;DHT22;9810;52.480;9.806;2023-03-11T01:33:28;0.30;99.90
19348;DHT22;9810;52.480;9.806;2023-03-11T01:35:55;0.30;99.90
19348;DHT22;9810;52.480;9.806;2023-03-11T01:38:22;0.20;99.90
19348;DHT22;9810;52.480;9.806;2023-03-11T01:40:51;0.20;99.90
19348;DHT22;9810;52.480;9.806;2023-03-11T01:43:44;0.30;99.90
19348;DHT22;9810;52.480;9.806;2023-03-11T01:46:14;0.20;99.90
19348;DHT22;9810;52.480;9.806;2023-03-11T01:48:45;0.20;99.90
19348;DHT22;9810;52.480;9.806;2023-03-11T01:51:13;0.30;99.90
19348;DHT22;9810;52.480;9.806;2023-03-11T01:53:42;0.20;99.90
19348;DHT22;9810;52.480;9.806;2023-03-11T01:56:13;0.20;99.90
19348;DHT22;9810;52.480;9.806;2023-03-11T01:58:43;0.20;99.90
19348;DHT22;9810;52.480;9.806;2023-03-11T02:01:13;0.20;99.90
19348;DHT22;9810;52.480;9.806;2023-03-11T02:03:41;0.20;99.90
19348;DHT22;9810;52.480;9.806;2023-03-11T02:06:10;0.10;99.90
19348;DHT22;9810;52.480;9.806;2023-03-11T02:08:39;0.10;99.90
19348;DHT22;9810;52.480;9.806;2023-03-11T02:11:09;0.10;99.90
19348;DHT22;9810;52.480;9.806;2023-03-11T02:13:40;0.20;99.90
19348;DHT22;9810;52.480;9.806;2023-03-11T02:16:07;0.20;99.90
19348;DHT22;9810;52.480;9.806;2023-03-11T02:18:36;0.10;99.90
19348;DHT22;9810;52.480;9.806;2023-03-11T02:21:09;0.10;99.90
19348;DHT22;9810;52.480;9.806;2023-03-11T02:23:45;0.00;99.90
19348;DHT22;9810;52.480;9.806;2023-03-11T02:26:17;0.10;99.90
19348;DHT22;9810;52.480;9.806;2023-03-11T02:28:49;0.10;99.90
19348;DHT22;9810;52.480;9.806;2023-03-11T02:31:18;0.00;99.90
19348;DHT22;9810;52.480;9.806;2023-03-11T02:33:46;0.00;99.90
19348;DHT22;9810;52.480;9.806;2023-03-11T02:36:32;0.10;99.90
19348;DHT22;9810;52.480;9.806;2023-03-11T02:39:00;0.00;99.90
19348;DHT22;9810;52.480;9.806;2023-03-11T02:41:28;0.10;99.90
19348;DHT22;9810;52.480;9.806;2023-03-11T02:43:58;0.20;99.90
19348;DHT22;9810;52.480;9.806;2023-03-11T02:46:26;0.10;99.90
19348;DHT22;9810;52.480;9.806;2023-03-11T02:48:55;0.00;99.90
19348;DHT22;9810;52.480;9.806;2023-03-11T02:51:22;0.10;99.90
19348;DHT22;9810;52.480;9.806;2023-03-11T02:53:53;0.10;99.90
19348;DHT22;9810;52.480;9.806;2023-03-11T02:56:21;0.10;99.90
19348;DHT22;9810;52.480;9.806;2023-03-11T02:58:48;0.20;99.90
19348;DHT22;9810;52.480;9.806;2023-03-11T03:01:17;0.10;99.90
19348;DHT22;9810;52.480;9.806;2023-03-11T03:03:44;0.10;99.90
19348;DHT22;9810;52.480;9.806;2023-03-11T03:06:12;0.10;99.90
19348;DHT22;9810;52.480;9.806;2023-03-11T03:08:39;0.10;99.90
19348;DHT22;9810;52.480;9.806;2023-03-11T03:11:07;0.10;99.90
19348;DHT22;9810;52.480;9.806;2023-03-11T03:13:34;0.10;99.90
19348;DHT22;9810;52.480;9.806;2023-03-11T03:16:01;0.20;99.90
19348;DHT22;9810;52.480;9.806;2023-03-11T03:18:31;0.20;99.90
19348;DHT22;9810;52.480;9.806;2023-03-11T03:20:58;0.20;99.90
19348;DHT22;9810;52.480;9.806;2023-03-11T03:23:25;0.20;99.90
19348;DHT22;9810;52.480;9.806;2023-03-11T03:25:53;0.10;99.90
19348;DHT22;9810;52.480;9.806;2023-03-11T03:28:20;0.10;99.90
19348;DHT22;9810;52.480;9.806;2023-03-11T03:30:48;0.20;99.90
19348;DHT22;9810;52.480;9.806;2023-03-11T03:33:15;0.20;99.90
19348;DHT22;9810;52.480;9.806;2023-03-11T03:35:44;0.20;99.90
19348;DHT22;9810;52.480;9.806;2023-03-11T03:38:12;0.30;99.90
19348;DHT22;9810;52.480;9.806;2023-03-11T03:40:45;0.30;99.90
19348;DHT22;9810;52.480;9.806;2023-03-11T03:43:12;0.20;99.90
19348;DHT22;9810;52.480;9.806;2023-03-11T03:45:40;0.30;99.90
19348;DHT22;9810;52.480;9.806;2023-03-11T03:48:07;0.10;99.90
19348;DHT22;9810;52.480;9.806;2023-03-11T03:50:34;0.10;99.90
19348;DHT22;9810;52.480;9.806;2023-03-11T03:53:03;0.10;99.90
19348;DHT22;9810;52.480;9.806;2023-03-11T03:55:31;0.20;99.90
19348;DHT22;9810;52.480;9.806;2023-03-11T03:57:58;0.10;99.90
19348;DHT22;9810;52.480;9.806;2023-03-11T04:00:25;0.10;99.90
19348;DHT22;9810;52.480;9.806;2023-03-11T04:02:53;0.10;99.90
19348;DHT22;9810;52.480;9.806;2023-03-11T04:05:20;0.20;99.90
19348;DHT22;9810;52.480;9.806;2023-03-11T04:07:51;0.20;99.90
19348;DHT22;9810;52.480;9.806;2023-03-11T04:10:20;0.10;99.90
19348;DHT22;9810;52.480;9.806;2023-03-11T04:12:47;0.10;99.90
19348;DHT22;9810;52.480;9.806;2023-03-11T04:15:15;0.20;99.90
19348;DHT22;9810;52.480;9.806;2023-03-11T04:17:42;0.10;99.90
19348;DHT22;9810;52.480;9.806;2023-03-11T04:20:11;0.10;99.90
19348;DHT22;9810;52.480;9.806;2023-03-11T04:22:38;0.00;99.90
19348;DHT22;9810;52.480;9.806;2023-03-11T04:25:06;0.00;99.90
19348;DHT22;9810;52.480;9.806;2023-03-11T04:27:36;0.00;99.90
19348;DHT22;9810;52.480;9.806;2023-03-11T04:30:08;0.10;99.90
19348;DHT22;9810;52.480;9.806;2023-03-11T04:32:35;0.10;99.90
19348;DHT22;9810;52.480;9.806;2023-03-11T04:35:03;0.10;99.90
19348;DHT22;9810;52.480;9.806;2023-03-11T04:37:31;0.00;99.90
19348;DHT22;9810;52.480;9.806;2023-03-11T04:39:58;0.30;99.90
19348;DHT22;9810;52.480;9.806;2023-03-11T04:42:26;0.30;99.90
19348;DHT22;9810;52.480;9.806;2023-03-11T04:44:55;0.20;99.90
19348;DHT22;9810;52.480;9.806;2023-03-11T04:47:23;0.20;99.90
19348;DHT22;9810;52.480;9.806;2023-03-11T04:49:50;0.10;99.90
19348;DHT22;9810;52.480;9.806;2023-03-11T04:52:17;0.10;99.90
19348;DHT22;9810;52.480;9.806;2023-03-11T04:54:45;0.10;99.90
19348;DHT22;9810;52.480;9.806;2023-03-11T04:57:12;0.00;99.90
19348;DHT22;9810;52.480;9.806;2023-03-11T04:59:39;-0.10;99.90
19348;DHT22;9810;52.480;9.806;2023-03-11T05:02:09;0.00;99.90
19348;DHT22;9810;52.480;9.806;2023-03-11T05:04:36;0.00;99.90
19348;DHT22;9810;52.480;9.806;2023-03-11T05:07:03;-0.10;99.90
19348;DHT22;9810;52.480;9.806;2023-03-11T05:09:31;-0.10;99.90
19348;DHT22;9810;52.480;9.806;2023-03-11T05:11:58;0.00;99.90
19348;DHT22;9810;52.480;9.806;2023-03-11T05:14:26;-0.10;99.90
19348;DHT22;9810;52.480;9.806;2023-03-11T05:16:53;-0.10;99.90
19348;DHT22;9810;52.480;9.806;2023-03-11T05:19:22;-0.10;99.90
19348;DHT22;9810;52.480;9.806;2023-03-11T05:21:59;0.00;99.90
19348;DHT22;9810;52.480;9.806;2023-03-11T05:24:28;-0.10;99.90
19348;DHT22;9810;52.480;9.806;2023-03-11T05:26:55;-0.10;99.90
19348;DHT22;9810;52.480;9.806;2023-03-11T05:29:23;-0.10;99.90
19348;DHT22;9810;52.480;9.806;2023-03-11T05:31:51;-0.10;99.90
19348;DHT22;9810;52.480;9.806;2023-03-11T05:34:18;-0.10;99.90
19348;DHT22;9810;52.480;9.806;2023-03-11T05:36:47;-0.10;99.90
19348;DHT22;9810;52.480;9.806;2023-03-11T05:39:17;-0.10;99.90
19348;DHT22;9810;52.480;9.806;2023-03-11T05:41:44;-0.10;99.90
19348;DHT22;9810;52.480;9.806;2023-03-11T05:44:11;-0.10;99.90
19348;DHT22;9810;52.480;9.806;2023-03-11T05:46:39;-0.10;99.90
19348;DHT22;9810;52.480;9.806;2023-03-11T05:49:06;0.00;99.90
19348;DHT22;9810;52.480;9.806;2023-03-11T05:51:33;0.10;99.90
19348;DHT22;9810;52.480;9.806;2023-03-11T05:54:03;0.10;99.90
19348;DHT22;9810;52.480;9.806;2023-03-11T05:56:36;0.00;99.90
19348;DHT22;9810;52.480;9.806;2023-03-11T05:59:03;0.00;99.90
19348;DHT22;9810;52.480;9.806;2023-03-11T06:01:30;-0.10;99.90
19348;DHT22;9810;52.480;9.806;2023-03-11T06:03:58;0.00;99.90
19348;DHT22;9810;52.480;9.806;2023-03-11T06:06:26;0.00;99.90
19348;DHT22;9810;52.480;9.806;2023-03-11T06:08:54;0.00;99.90
19348;DHT22;9810;52.480;9.806;2023-03-11T06:11:23;-0.10;99.90
19348;DHT22;9810;52.480;9.806;2023-03-11T06:13:52;0.10;99.90
19348;DHT22;9810;52.480;9.806;2023-03-11T06:16:19;0.10;99.90
19348;DHT22;9810;52.480;9.806;2023-03-11T06:18:47;0.00;99.90
19348;DHT22;9810;52.480;9.806;2023-03-11T06:21:16;0.10;99.90
19348;DHT22;9810;52.480;9.806;2023-03-11T06:23:44;0.10;99.90
19348;DHT22;9810;52.480;9.806;2023-03-11T06:26:14;0.10;99.90
19348;DHT22;9810;52.480;9.806;2023-03-11T06:28:43;0.00;99.90
19348;DHT22;9810;52.480;9.806;2023-03-11T06:31:12;0.00;99.90
19348;DHT22;9810;52.480;9.806;2023-03-11T06:33:40;0.10;99.90
19348;DHT22;9810;52.480;9.806;2023-03-11T06:36:09;0.10;99.90
19348;DHT22;9810;52.480;9.806;2023-03-11T06:38:37;0.10;99.90
19348;DHT22;9810;52.480;9.806;2023-03-11T06:41:05;0.30;99.90
19348;DHT22;9810;52.480;9.806;2023-03-11T06:43:33;0.20;99.90
19348;DHT22;9810;52.480;9.806;2023-03-11T06:46:07;0.20;99.90
19348;DHT22;9810;52.480;9.806;2023-03-11T06:48:34;0.20;99.90
19348;DHT22;9810;52.480;9.806;2023-03-11T06:51:02;0.20;99.90
19348;DHT22;9810;52.480;9.806;2023-03-11T06:53:29;0.30;99.90
19348;DHT22;9810;52.480;9.806;2023-03-11T06:55:58;0.30;99.90
19348;DHT22;9810;52.480;9.806;2023-03-11T06:58:26;0.40;99.90
19348;DHT22;9810;52.480;9.806;2023-03-11T07:00:53;0.20;99.90
19348;DHT22;9810;52.480;9.806;2023-03-11T07:03:22;0.20;99.90
19348;DHT22;9810;52.480;9.806;2023-03-11T07:05:50;0.20;99.90
19348;DHT22;9810;52.480;9.806;2023-03-11T07:08:18;0.30;99.90
19348;DHT22;9810;52.480;9.806;2023-03-11T07:10:45;0.40;99.90
19348;DHT22;9810;52.480;9.806;2023-03-11T07:13:13;0.50;99.90
19348;DHT22;9810;52.480;9.806;2023-03-11T07:15:40;0.50;99.90
19348;DHT22;9810;52.480;9.806;2023-03-11T07:18:07;0.50;99.90
19348;DHT22;9810;52.480;9.806;2023-03-11T07:20:39;0.50;99.90
19348;DHT22;9810;52.480;9.806;2023-03-11T07:23:06;0.50;99.90
19348;DHT22;9810;52.480;9.806;2023-03-11T07:25:33;0.40;99.90
19348;DHT22;9810;52.480;9.806;2023-03-11T07:28:01;0.50;99.90
19348;DHT22;9810;52.480;9.806;2023-03-11T07:30:28;0.30;99.90
19348;DHT22;9810;52.480;9.806;2023-03-11T07:32:55;0.60;99.90
19348;DHT22;9810;52.480;9.806;2023-03-11T07:35:23;0.50;99.90
19348;DHT22;9810;52.480;9.806;2023-03-11T07:37:52;0.80;99.90
19348;DHT22;9810;52.480;9.806;2023-03-11T07:40:19;0.80;99.90
19348;DHT22;9810;52.480;9.806;2023-03-11T07:42:46;0.80;99.90
19348;DHT22;9810;52.480;9.806;2023-03-11T07:45:14;0.90;99.90
19348;DHT22;9810;52.480;9.806;2023-03-11T07:47:41;1.20;99.90
19348;DHT22;9810;52.480;9.806;2023-03-11T07:50:10;1.40;99.90
19348;DHT22;9810;52.480;9.806;2023-03-11T07:52:37;1.40;99.90
19348;DHT22;9810;52.480;9.806;2023-03-11T07:55:07;1.30;99.90
19348;DHT22;9810;52.480;9.806;2023-03-11T07:57:35;1.50;99.90
19348;DHT22;9810;52.480;9.806;2023-03-11T08:00:03;1.40;99.90
19348;DHT22;9810;52.480;9.806;2023-03-11T08:02:30;1.20;99.90
19348;DHT22;9810;52.480;9.806;2023-03-11T08:04:57;1.30;99.90
19348;DHT22;9810;52.480;9.806;2023-03-11T08:07:24;1.60;99.90
19348;DHT22;9810;52.480;9.806;2023-03-11T08:09:52;1.60;99.90
19348;DHT22;9810;52.480;9.806;2023-03-11T08:12:21;2.00;99.90
19348;DHT22;9810;52.480;9.806;2023-03-11T08:14:49;2.30;99.90
19348;DHT22;9810;52.480;9.806;2023-03-11T08:17:16;3.30;99.90
19348;DHT22;9810;52.480;9.806;2023-03-11T08:19:43;3.90;99.90
19348;DHT22;9810;52.480;9.806;2023-03-11T08:22:11;4.10;99.90
19348;DHT22;9810;52.480;9.806;2023-03-11T08:24:38;4.40;99.90
19348;DHT22;9810;52.480;9.806;2023-03-11T08:27:05;5.10;99.90
19348;DHT22;9810;52.480;9.806;2023-03-11T08:29:35;6.70;99.90
19348;DHT22;9810;52.480;9.806;2023-03-11T08:32:03;7.30;99.90
19348;DHT22;9810;52.480;9.806;2023-03-11T08:34:31;6.90;99.90
19348;DHT22;9810;52.480;9.806;2023-03-11T08:36:59;7.20;99.90
19348;DHT22;9810;52.480;9.806;2023-03-11T08:39:27;7.10;99.90
19348;DHT22;9810;52.480;9.806;2023-03-11T08:41:55;7.00;99.90
19348;DHT22;9810;52.480;9.806;2023-03-11T08:44:22;8.00;99.90
19348;DHT22;9810;52.480;9.806;2023-03-11T08:46:51;7.60;99.90
19348;DHT22;9810;52.480;9.806;2023-03-11T08:49:18;7.20;99.90
19348;DHT22;9810;52.480;9.806;2023-03-11T08:51:46;7.60;99.90
19348;DHT22;9810;52.480;9.806;2023-03-11T08:54:13;8.00;99.90
19348;DHT22;9810;52.480;9.806;2023-03-11T08:56:40;7.50;99.90
19348;DHT22;9810;52.480;9.806;2023-03-11T08:59:08;7.10;99.90
19348;DHT22;9810;52.480;9.806;2023-03-11T09:01:35;8.30;99.90
19348;DHT22;9810;52.480;9.806;2023-03-11T09:04:05;8.40;99.90
19348;DHT22;9810;52.480;9.806;2023-03-11T09:06:32;8.90;99.90
19348;DHT22;9810;52.480;9.806;2023-03-11T09:09:00;7.80;99.90
19348;DHT22;9810;52.480;9.806;2023-03-11T09:11:27;7.80;99.90
19348;DHT22;9810;52.480;9.806;2023-03-11T09:13:55;8.00;99.90
19348;DHT22;9810;52.480;9.806;2023-03-11T09:16:23;7.40;99.90
19348;DHT22;9810;52.480;9.806;2023-03-11T09:18:50;7.30;99.90
19348;DHT22;9810;52.480;9.806;2023-03-11T09:21:19;7.20;99.90
19348;DHT22;9810;52.480;9.806;2023-03-11T09:23:47;9.20;99.90
19348;DHT22;9810;52.480;9.806;2023-03-11T09:26:17;9.20;99.90
19348;DHT22;9810;52.480;9.806;2023-03-11T09:28:46;10.30;99.90
19348;DHT22;9810;52.480;9.806;2023-03-11T09:31:14;10.20;99.90
19348;DHT22;9810;52.480;9.806;2023-03-11T09:33:43;9.50;99.90
19348;DHT22;9810;52.480;9.806;2023-03-11T09:36:12;9.20;99.90
19348;DHT22;9810;52.480;9.806;2023-03-11T09:38:42;8.20;99.90
19348;DHT22;9810;52.480;9.806;2023-03-11T09:41:26;7.40;99.90
19348;DHT22;9810;52.480;9.806;2023-03-11T09:44:07;8.70;99.90
19348;DHT22;9810;52.480;9.806;2023-03-11T09:46:56;11.60;99.90
19348;DHT22;9810;52.480;9.806;2023-03-11T09:49:28;12.00;99.90
19348;DHT22;9810;52.480;9.806;2023-03-11T09:52:02;11.70;99.90
19348;DHT22;9810;52.480;9.806;2023-03-11T09:54:39;10.80;99.90
19348;DHT22;9810;52.480;9.806;2023-03-11T09:57:13;9.00;99.90
19348;DHT22;9810;52.480;9.806;2023-03-11T09:59:43;10.50;99.90
19348;DHT22;9810;52.480;9.806;2023-03-11T10:02:14;10.80;99.90
19348;DHT22;9810;52.480;9.806;2023-03-11T10:04:48;13.30;99.90
19348;DHT22;9810;52.480;9.806;2023-03-11T10:07:20;11.80;99.90
19348;DHT22;9810;52.480;9.806;2023-03-11T10:09:53;11.70;99.90
19348;DHT22;9810;52.480;9.806;2023-03-11T10:12:30;11.10;99.90
19348;DHT22;9810;52.480;9.806;2023-03-11T10:15:18;9.70;99.90
19348;DHT22;9810;52.480;9.806;2023-03-11T10:20:47;8.90;99.90
19348;DHT22;9810;52.480;9.806;2023-03-11T10:23:25;9.80;99.90
19348;DHT22;9810;52.480;9.806;2023-03-11T10:26:02;10.10;99.90
19348;DHT22;9810;52.480;9.806;2023-03-11T10:28:35;10.80;99.90
19348;DHT22;9810;52.480;9.806;2023-03-11T10:31:07;8.10;99.90
19348;DHT22;9810;52.480;9.806;2023-03-11T10:33:46;9.90;99.90
19348;DHT22;9810;52.480;9.806;2023-03-11T10:36:18;9.80;99.90
19348;DHT22;9810;52.480;9.806;2023-03-11T10:38:49;11.20;99.90
19348;DHT22;9810;52.480;9.806;2023-03-11T10:41:22;11.90;99.90
19348;DHT22;9810;52.480;9.806;2023-03-11T10:43:53;12.50;99.90
19348;DHT22;9810;52.480;9.806;2023-03-11T10:46:26;11.40;99.90
19348;DHT22;9810;52.480;9.806;2023-03-11T10:48:54;11.70;99.90
19348;DHT22;9810;52.480;9.806;2023-03-11T10:51:23;13.90;99.90
19348;DHT22;9810;52.480;9.806;2023-03-11T10:53:53;14.70;99.90
19348;DHT22;9810;52.480;9.806;2023-03-11T10:56:31;14.20;99.90
19348;DHT22;9810;52.480;9.806;2023-03-11T10:59:01;13.70;99.90
19348;DHT22;9810;52.480;9.806;2023-03-11T11:01:29;14.90;99.90
19348;DHT22;9810;52.480;9.806;2023-03-11T11:03:58;13.70;99.90
19348;DHT22;9810;52.480;9.806;2023-03-11T11:06:28;14.40;99.90
19348;DHT22;9810;52.480;9.806;2023-03-11T11:09:09;13.30;99.90
19348;DHT22;9810;52.480;9.806;2023-03-11T11:11:40;10.50;99.90
19348;DHT22;9810;52.480;9.806;2023-03-11T11:14:08;11.50;99.90
19348;DHT22;9810;52.480;9.806;2023-03-11T11:16:36;12.50;99.90
19348;DHT22;9810;52.480;9.806;2023-03-11T11:19:08;12.40;99.90
19348;DHT22;9810;52.480;9.806;2023-03-11T11:21:37;13.30;99.90
19348;DHT22;9810;52.480;9.806;2023-03-11T11:24:19;14.20;99.90
19348;DHT22;9810;52.480;9.806;2023-03-11T11:27:06;13.30;99.90
19348;DHT22;9810;52.480;9.806;2023-03-11T11:29:41;14.00;99.90
19348;DHT22;9810;52.480;9.806;2023-03-11T11:32:26;11.40;99.90
19348;DHT22;9810;52.480;9.806;2023-03-11T11:34:57;12.80;99.90
19348;DHT22;9810;52.480;9.806;2023-03-11T11:37:26;13.60;99.90
19348;DHT22;9810;52.480;9.806;2023-03-11T11:39:59;11.90;99.90
19348;DHT22;9810;52.480;9.806;2023-03-11T11:42:36;13.30;99.90
19348;DHT22;9810;52.480;9.806;2023-03-11T11:45:12;13.00;99.90
19348;DHT22;9810;52.480;9.806;2023-03-11T11:47:43;13.10;99.90
19348;DHT22;9810;52.480;9.806;2023-03-11T11:50:17;13.80;99.90
19348;DHT22;9810;52.480;9.806;2023-03-11T11:52:57;12.50;99.90
19348;DHT22;9810;52.480;9.806;2023-03-11T11:55:29;12.50;99.90
19348;DHT22;9810;52.480;9.806;2023-03-11T11:57:58;11.80;99.90
19348;DHT22;9810;52.480;9.806;2023-03-11T12:00:31;11.20;99.90
19348;DHT22;9810;52.480;9.806;2023-03-11T12:03:10;11.50;99.90
19348;DHT22;9810;52.480;9.806;2023-03-11T12:05:51;10.90;99.90
19348;DHT22;9810;52.480;9.806;2023-03-11T12:08:22;10.50;99.90
19348;DHT22;9810;52.480;9.806;2023-03-11T12:10:55;9.90;99.90
19348;DHT22;9810;52.480;9.806;2023-03-11T12:13:52;9.50;99.90
19348;DHT22;9810;52.480;9.806;2023-03-11T12:16:36;8.60;99.90
19348;DHT22;9810;52.480;9.806;2023-03-11T12:19:16;8.30;99.90
19348;DHT22;9810;52.480;9.806;2023-03-11T12:22:06;8.10;99.90
19348;DHT22;9810;52.480;9.806;2023-03-11T12:24:52;7.80;99.90
19348;DHT22;9810;52.480;9.806;2023-03-11T12:27:26;7.50;99.90
19348;DHT22;9810;52.480;9.806;2023-03-11T12:30:00;7.40;99.90
19348;DHT22;9810;52.480;9.806;2023-03-11T12:32:32;7.20;99.90
19348;DHT22;9810;52.480;9.806;2023-03-11T12:35:02;6.60;99.90
19348;DHT22;9810;52.480;9.806;2023-03-11T12:37:36;6.90;99.90
19348;DHT22;9810;52.480;9.806;2023-03-11T12:43:08;7.00;99.90
19348;DHT22;9810;52.480;9.806;2023-03-11T12:45:51;6.30;99.90
19348;DHT22;9810;52.480;9.806;2023-03-11T12:48:34;6.20;99.90
19348;DHT22;9810;52.480;9.806;2023-03-11T12:51:02;6.30;99.90
19348;DHT22;9810;52.480;9.806;2023-03-11T12:53:44;5.90;99.90
19348;DHT22;9810;52.480;9.806;2023-03-11T12:56:24;5.90;99.90
19348;DHT22;9810;52.480;9.806;2023-03-11T12:59:02;5.90;99.90
19348;DHT22;9810;52.480;9.806;2023-03-11T13:01:46;6.00;99.90
19348;DHT22;9810;52.480;9.806;2023-03-11T13:04:28;5.90;99.90
19348;DHT22;9810;52.480;9.806;2023-03-11T13:10:11;5.90;99.90
19348;DHT22;9810;52.480;9.806;2023-03-11T13:12:41;5.70;99.90
19348;DHT22;9810;52.480;9.806;2023-03-11T13:15:25;5.60;99.90
19348;DHT22;9810;52.480;9.806;2023-03-11T13:18:14;5.70;99.90
19348;DHT22;9810;52.480;9.806;2023-03-11T13:20:46;5.50;99.90
19348;DHT22;9810;52.480;9.806;2023-03-11T13:23:35;5.40;99.90
19348;DHT22;9810;52.480;9.806;2023-03-11T13:26:33;5.40;99.90
19348;DHT22;9810;52.480;9.806;2023-03-11T13:29:15;5.30;99.90
19348;DHT22;9810;52.480;9.806;2023-03-11T13:32:03;5.50;99.90
19348;DHT22;9810;52.480;9.806;2023-03-11T13:34:43;5.80;99.90
19348;DHT22;9810;52.480;9.806;2023-03-11T13:37:22;5.60;99.90
19348;DHT22;9810;52.480;9.806;2023-03-11T13:39:58;5.50;99.90
19348;DHT22;9810;52.480;9.806;2023-03-11T13:42:29;5.30;99.90
19348;DHT22;9810;52.480;9.806;2023-03-11T13:44:58;5.50;99.90
19348;DHT22;9810;52.480;9.806;2023-03-11T13:47:26;5.30;99.90
19348;DHT22;9810;52.480;9.806;2023-03-11T13:49:59;5.10;99.90
19348;DHT22;9810;52.480;9.806;2023-03-11T13:52:31;5.30;99.90
19348;DHT22;9810;52.480;9.806;2023-03-11T13:55:02;5.30;99.90
19348;DHT22;9810;52.480;9.806;2023-03-11T13:57:32;5.50;99.90
19348;DHT22;9810;52.480;9.806;2023-03-11T14:00:06;5.40;99.90
19348;DHT22;9810;52.480;9.806;2023-03-11T14:02:46;5.60;99.90
19348;DHT22;9810;52.480;9.806;2023-03-11T14:05:21;5.10;99.90
19348;DHT22;9810;52.480;9.806;2023-03-11T14:07:49;5.10;99.90
19348;DHT22;9810;52.480;9.806;2023-03-11T14:10:22;5.10;99.90
19348;DHT22;9810;52.480;9.806;2023-03-11T14:12:50;4.90;99.90
19348;DHT22;9810;52.480;9.806;2023-03-11T14:15:20;4.80;99.90
19348;DHT22;9810;52.480;9.806;2023-03-11T14:17:50;4.80;99.90
19348;DHT22;9810;52.480;9.806;2023-03-11T14:20:21;5.00;99.90
19348;DHT22;9810;52.480;9.806;2023-03-11T14:22:52;5.20;99.90
19348;DHT22;9810;52.480;9.806;2023-03-11T14:25:21;5.40;99.90
19348;DHT22;9810;52.480;9.806;2023-03-11T14:27:53;5.50;99.90
19348;DHT22;9810;52.480;9.806;2023-03-11T14:30:23;5.60;99.90
19348;DHT22;9810;52.480;9.806;2023-03-11T14:33:00;5.30;99.90
19348;DHT22;9810;52.480;9.806;2023-03-11T14:35:31;5.40;99.90
19348;DHT22;9810;52.480;9.806;2023-03-11T14:37:59;5.70;99.90
19348;DHT22;9810;52.480;9.806;2023-03-11T14:40:29;5.60;99.90
19348;DHT22;9810;52.480;9.806;2023-03-11T14:42:59;5.40;99.90
19348;DHT22;9810;52.480;9.806;2023-03-11T14:45:28;5.20;99.90
19348;DHT22;9810;52.480;9.806;2023-03-11T14:48:01;5.40;99.90
19348;DHT22;9810;52.480;9.806;2023-03-11T14:50:32;5.50;99.90
19348;DHT22;9810;52.480;9.806;2023-03-11T14:53:03;5.40;99.90
19348;DHT22;9810;52.480;9.806;2023-03-11T14:55:36;5.20;99.90
19348;DHT22;9810;52.480;9.806;2023-03-11T14:58:09;5.50;99.90
19348;DHT22;9810;52.480;9.806;2023-03-11T15:00:39;5.70;99.90
19348;DHT22;9810;52.480;9.806;2023-03-11T15:03:16;5.90;99.90
19348;DHT22;9810;52.480;9.806;2023-03-11T15:05:50;5.70;99.90
19348;DHT22;9810;52.480;9.806;2023-03-11T15:08:19;5.60;99.90
19348;DHT22;9810;52.480;9.806;2023-03-11T15:11:13;5.60;99.90
19348;DHT22;9810;52.480;9.806;2023-03-11T15:13:45;5.40;99.90
19348;DHT22;9810;52.480;9.806;2023-03-11T15:16:28;5.40;99.90
19348;DHT22;9810;52.480;9.806;2023-03-11T15:18:59;5.40;99.90
19348;DHT22;9810;52.480;9.806;2023-03-11T15:21:28;5.50;99.90
19348;DHT22;9810;52.480;9.806;2023-03-11T15:24:00;5.30;99.90
19348;DHT22;9810;52.480;9.806;2023-03-11T15:26:32;5.30;99.90
19348;DHT22;9810;52.480;9.806;2023-03-11T15:29:00;5.00;99.90
19348;DHT22;9810;52.480;9.806;2023-03-11T15:31:31;4.90;99.90
19348;DHT22;9810;52.480;9.806;2023-03-11T15:34:24;5.00;99.90
19348;DHT22;9810;52.480;9.806;2023-03-11T15:37:00;4.80;99.90
19348;DHT22;9810;52.480;9.806;2023-03-11T15:39:41;4.80;99.90
19348;DHT22;9810;52.480;9.806;2023-03-11T15:42:21;4.70;99.90
19348;DHT22;9810;52.480;9.806;2023-03-11T15:45:01;4.60;99.90
19348;DHT22;9810;52.480;9.806;2023-03-11T15:47:29;4.60;99.90
19348;DHT22;9810;52.480;9.806;2023-03-11T15:49:57;4.60;99.90
19348;DHT22;9810;52.480;9.806;2023-03-11T15:52:29;4.50;99.90
19348;DHT22;9810;52.480;9.806;2023-03-11T15:54:57;4.60;99.90
19348;DHT22;9810;52.480;9.806;2023-03-11T15:57:26;4.50;99.90
19348;DHT22;9810;52.480;9.806;2023-03-11T15:59:55;4.50;99.90
19348;DHT22;9810;52.480;9.806;2023-03-11T16:02:26;4.50;99.90
19348;DHT22;9810;52.480;9.806;2023-03-11T16:04:55;4.50;99.90
19348;DHT22;9810;52.480;9.806;2023-03-11T16:07:22;4.50;99.90
19348;DHT22;9810;52.480;9.806;2023-03-11T16:09:52;4.40;99.90
19348;DHT22;9810;52.480;9.806;2023-03-11T16:12:21;4.40;99.90
19348;DHT22;9810;52.480;9.806;2023-03-11T16:14:49;4.40;99.90
19348;DHT22;9810;52.480;9.806;2023-03-11T16:17:16;4.40;99.90
19348;DHT22;9810;52.480;9.806;2023-03-11T16:19:45;4.30;99.90
19348;DHT22;9810;52.480;9.806;2023-03-11T16:22:16;4.20;99.90
19348;DHT22;9810;52.480;9.806;2023-03-11T16:24:45;4.10;99.90
19348;DHT22;9810;52.480;9.806;2023-03-11T16:27:16;4.00;99.90
19348;DHT22;9810;52.480;9.806;2023-03-11T16:29:44;4.00;99.90
19348;DHT22;9810;52.480;9.806;2023-03-11T16:32:12;3.80;99.90